Aviation Digital Data Service (ADDS)

Output produced by METARs form (1816 UTC 26 October 2021)
found at http://aviationweather.gov/metar/data/
 
METAR text: KSLI 261758Z 00000KT 10SM FEW030 18/14 A3012 RMK AO2A SLP203 T01790138 10179 20068 51014
Conditions at: KSLI (LOS ALAMITOS AAF, CA, US) observed 1758 UTC 26 October 2021
Temperature: 17.9°C (64°F)
Dewpoint: 13.8°C (57°F) [RH = 77%]
Pressure (altimeter): 30.12 inches Hg (1020.1 mb)
[Sea-level pressure: 1020.3 mb]
Winds: calm
Visibility: 10 or more miles (16+ km)
Ceiling: at least 12,000 feet AGL
Clouds: few clouds at 3000 feet AGL
Weather: no significant weather observed at this time

Forecast for: KSLI (LOS ALAMITOS AAF, CA, US)
Text: TAF KSLI 261317Z 2613/2719 VRB06KT 8000 BR SKC QNH3005INS
Forecast period: 1300 to 1500 UTC 26 October 2021
Forecast type: FROM: standard forecast or significant change
Winds: variable direction winds at 7 MPH (6 knots; 3.1 m/s)
Visibility: 5 miles (8 km)
Clouds: clear skies
Weather: BR  (mist)
Text: BECMG 2615/2616 VRB06KT 9999 NSW SKC QNH3008INS TX20/2623Z TN09/2613Z
Forecast period: 1500 UTC 26 October 2021 to 1900 UTC 27 October 2021
Forecast type: BECOMING: Conditions expected to become as follows by 1600 UTC 26 October 2021
Winds: variable direction winds at 7 MPH (6 knots; 3.1 m/s)
Visibility: 6 or more miles (10+ km)
Clouds: clear skies
Weather: NSW  (no significant weather)